sensor_id;sensor_type;location;lat;lon;timestamp;temperature;humidity
37408;DHT22;24866;50.248;8.252;2022-07-21T00:02:27;22.40;99.90
37408;DHT22;24866;50.248;8.252;2022-07-21T00:04:58;22.50;99.90
37408;DHT22;24866;50.248;8.252;2022-07-21T00:07:29;22.60;99.90
37408;DHT22;24866;50.248;8.252;2022-07-21T00:10:02;22.70;99.90
37408;DHT22;24866;50.248;8.252;2022-07-21T00:12:32;22.60;99.90
37408;DHT22;24866;50.248;8.252;2022-07-21T00:15:03;22.70;99.90
37408;DHT22;24866;50.248;8.252;2022-07-21T00:17:34;22.70;99.90
37408;DHT22;24866;50.248;8.252;2022-07-21T00:20:10;22.60;99.90
37408;DHT22;24866;50.248;8.252;2022-07-21T00:22:40;22.60;99.90
37408;DHT22;24866;50.248;8.252;2022-07-21T00:25:12;22.70;99.90
37408;DHT22;24866;50.248;8.252;2022-07-21T00:27:43;22.70;99.90
37408;DHT22;24866;50.248;8.252;2022-07-21T00:30:14;22.80;99.90
37408;DHT22;24866;50.248;8.252;2022-07-21T00:33:04;22.80;99.90
37408;DHT22;24866;50.248;8.252;2022-07-21T00:35:44;22.80;99.90
37408;DHT22;24866;50.248;8.252;2022-07-21T00:38:13;22.90;99.90
37408;DHT22;24866;50.248;8.252;2022-07-21T00:40:43;22.90;99.90
37408;DHT22;24866;50.248;8.252;2022-07-21T00:43:30;22.70;99.90
37408;DHT22;24866;50.248;8.252;2022-07-21T00:46:25;22.60;99.90
37408;DHT22;24866;50.248;8.252;2022-07-21T00:48:58;22.40;99.90
37408;DHT22;24866;50.248;8.252;2022-07-21T00:51:29;22.00;99.90
37408;DHT22;24866;50.248;8.252;2022-07-21T00:53:59;21.80;99.90
37408;DHT22;24866;50.248;8.252;2022-07-21T00:56:38;21.80;99.90
37408;DHT22;24866;50.248;8.252;2022-07-21T00:59:09;21.70;99.90
37408;DHT22;24866;50.248;8.252;2022-07-21T01:01:39;21.40;99.90
37408;DHT22;24866;50.248;8.252;2022-07-21T01:04:10;21.50;99.90
37408;DHT22;24866;50.248;8.252;2022-07-21T01:06:42;21.60;99.90
37408;DHT22;24866;50.248;8.252;2022-07-21T01:09:12;21.50;99.90
37408;DHT22;24866;50.248;8.252;2022-07-21T01:11:41;21.30;99.90
37408;DHT22;24866;50.248;8.252;2022-07-21T01:14:13;21.10;99.90
37408;DHT22;24866;50.248;8.252;2022-07-21T01:16:43;20.90;99.90
37408;DHT22;24866;50.248;8.252;2022-07-21T01:19:13;20.80;99.90
37408;DHT22;24866;50.248;8.252;2022-07-21T01:21:45;20.60;99.90
37408;DHT22;24866;50.248;8.252;2022-07-21T01:24:16;20.40;99.90
37408;DHT22;24866;50.248;8.252;2022-07-21T01:26:48;20.40;99.90
37408;DHT22;24866;50.248;8.252;2022-07-21T01:29:18;20.40;99.90
37408;DHT22;24866;50.248;8.252;2022-07-21T01:31:49;20.60;99.90
37408;DHT22;24866;50.248;8.252;2022-07-21T01:34:20;20.90;99.90
37408;DHT22;24866;50.248;8.252;2022-07-21T01:36:58;20.80;99.90
37408;DHT22;24866;50.248;8.252;2022-07-21T01:39:28;20.60;99.90
37408;DHT22;24866;50.248;8.252;2022-07-21T01:42:16;20.60;99.90
37408;DHT22;24866;50.248;8.252;2022-07-21T01:44:46;20.30;99.90
37408;DHT22;24866;50.248;8.252;2022-07-21T01:47:17;20.40;99.90
37408;DHT22;24866;50.248;8.252;2022-07-21T01:49:49;20.10;99.90
37408;DHT22;24866;50.248;8.252;2022-07-21T01:52:21;20.00;99.90
37408;DHT22;24866;50.248;8.252;2022-07-21T01:54:55;20.20;99.90
37408;DHT22;24866;50.248;8.252;2022-07-21T01:57:25;20.10;99.90
37408;DHT22;24866;50.248;8.252;2022-07-21T01:59:54;19.90;99.90
37408;DHT22;24866;50.248;8.252;2022-07-21T02:02:24;19.80;99.90
37408;DHT22;24866;50.248;8.252;2022-07-21T02:04:54;19.90;99.90
37408;DHT22;24866;50.248;8.252;2022-07-21T02:07:26;19.80;99.90
37408;DHT22;24866;50.248;8.252;2022-07-21T02:09:55;19.60;99.90
37408;DHT22;24866;50.248;8.252;2022-07-21T02:12:27;19.60;99.90
37408;DHT22;24866;50.248;8.252;2022-07-21T02:14:57;19.70;99.90
37408;DHT22;24866;50.248;8.252;2022-07-21T02:17:27;19.70;99.90
37408;DHT22;24866;50.248;8.252;2022-07-21T02:19:56;19.70;99.90
37408;DHT22;24866;50.248;8.252;2022-07-21T02:22:28;19.70;99.90
37408;DHT22;24866;50.248;8.252;2022-07-21T02:24:58;19.50;99.90
37408;DHT22;24866;50.248;8.252;2022-07-21T02:27:31;19.50;99.90
37408;DHT22;24866;50.248;8.252;2022-07-21T02:30:01;19.50;99.90
37408;DHT22;24866;50.248;8.252;2022-07-21T02:32:32;19.90;99.90
37408;DHT22;24866;50.248;8.252;2022-07-21T02:35:02;20.20;99.90
37408;DHT22;24866;50.248;8.252;2022-07-21T02:37:33;19.80;99.90
37408;DHT22;24866;50.248;8.252;2022-07-21T02:40:04;20.10;99.90
37408;DHT22;24866;50.248;8.252;2022-07-21T02:42:34;20.30;99.90
37408;DHT22;24866;50.248;8.252;2022-07-21T02:45:08;20.40;99.90
37408;DHT22;24866;50.248;8.252;2022-07-21T02:47:49;20.40;99.90
37408;DHT22;24866;50.248;8.252;2022-07-21T02:50:19;20.30;99.90
37408;DHT22;24866;50.248;8.252;2022-07-21T02:52:54;20.00;99.90
37408;DHT22;24866;50.248;8.252;2022-07-21T02:55:25;20.30;99.90
37408;DHT22;24866;50.248;8.252;2022-07-21T02:58:04;20.30;99.90
37408;DHT22;24866;50.248;8.252;2022-07-21T03:00:36;20.30;99.90
37408;DHT22;24866;50.248;8.252;2022-07-21T03:03:08;20.10;99.90
37408;DHT22;24866;50.248;8.252;2022-07-21T03:05:39;20.10;99.90
37408;DHT22;24866;50.248;8.252;2022-07-21T03:08:11;20.20;99.90
37408;DHT22;24866;50.248;8.252;2022-07-21T03:10:41;20.20;99.90
37408;DHT22;24866;50.248;8.252;2022-07-21T03:13:11;20.20;99.90
37408;DHT22;24866;50.248;8.252;2022-07-21T03:15:41;20.20;99.90
37408;DHT22;24866;50.248;8.252;2022-07-21T03:18:11;20.10;99.90
37408;DHT22;24866;50.248;8.252;2022-07-21T03:20:42;20.00;99.90
37408;DHT22;24866;50.248;8.252;2022-07-21T03:23:14;20.10;99.90
37408;DHT22;24866;50.248;8.252;2022-07-21T03:25:44;20.10;99.90
37408;DHT22;24866;50.248;8.252;2022-07-21T03:28:13;20.00;99.90
37408;DHT22;24866;50.248;8.252;2022-07-21T03:30:44;20.30;99.90
37408;DHT22;24866;50.248;8.252;2022-07-21T03:33:15;19.80;99.90
37408;DHT22;24866;50.248;8.252;2022-07-21T03:35:49;20.20;99.90
37408;DHT22;24866;50.248;8.252;2022-07-21T03:38:20;20.00;99.90
37408;DHT22;24866;50.248;8.252;2022-07-21T03:40:50;19.80;99.90
37408;DHT22;24866;50.248;8.252;2022-07-21T03:43:20;20.00;99.90
37408;DHT22;24866;50.248;8.252;2022-07-21T03:45:50;20.10;99.90
37408;DHT22;24866;50.248;8.252;2022-07-21T03:48:23;20.20;99.90
37408;DHT22;24866;50.248;8.252;2022-07-21T03:50:53;20.20;99.90
37408;DHT22;24866;50.248;8.252;2022-07-21T03:53:24;20.10;99.90
37408;DHT22;24866;50.248;8.252;2022-07-21T03:55:59;20.10;99.90
37408;DHT22;24866;50.248;8.252;2022-07-21T03:58:30;20.20;99.90
37408;DHT22;24866;50.248;8.252;2022-07-21T04:01:00;20.10;99.90
37408;DHT22;24866;50.248;8.252;2022-07-21T04:03:30;20.20;99.90
37408;DHT22;24866;50.248;8.252;2022-07-21T04:06:02;19.90;99.90
37408;DHT22;24866;50.248;8.252;2022-07-21T04:08:34;19.80;99.90
37408;DHT22;24866;50.248;8.252;2022-07-21T04:11:04;19.70;99.90
37408;DHT22;24866;50.248;8.252;2022-07-21T04:13:34;19.80;99.90
37408;DHT22;24866;50.248;8.252;2022-07-21T04:16:05;20.00;99.90
37408;DHT22;24866;50.248;8.252;2022-07-21T04:18:35;20.00;99.90
37408;DHT22;24866;50.248;8.252;2022-07-21T04:21:05;19.60;99.90
37408;DHT22;24866;50.248;8.252;2022-07-21T04:23:36;19.70;99.90
37408;DHT22;24866;50.248;8.252;2022-07-21T04:26:06;19.70;99.90
37408;DHT22;24866;50.248;8.252;2022-07-21T04:28:36;19.70;99.90
37408;DHT22;24866;50.248;8.252;2022-07-21T04:31:06;19.70;99.90
37408;DHT22;24866;50.248;8.252;2022-07-21T04:33:36;19.80;99.90
37408;DHT22;24866;50.248;8.252;2022-07-21T04:36:07;19.90;99.90
37408;DHT22;24866;50.248;8.252;2022-07-21T04:38:41;19.80;99.90
37408;DHT22;24866;50.248;8.252;2022-07-21T04:41:12;19.60;99.90
37408;DHT22;24866;50.248;8.252;2022-07-21T04:43:42;19.70;99.90
37408;DHT22;24866;50.248;8.252;2022-07-21T04:46:12;19.60;99.90
37408;DHT22;24866;50.248;8.252;2022-07-21T04:48:43;19.80;99.90
37408;DHT22;24866;50.248;8.252;2022-07-21T04:51:13;19.80;99.90
37408;DHT22;24866;50.248;8.252;2022-07-21T04:53:44;19.90;99.90
37408;DHT22;24866;50.248;8.252;2022-07-21T04:56:14;19.90;99.90
37408;DHT22;24866;50.248;8.252;2022-07-21T04:58:44;20.00;99.90
37408;DHT22;24866;50.248;8.252;2022-07-21T05:01:14;20.10;99.90
37408;DHT22;24866;50.248;8.252;2022-07-21T05:03:46;20.10;99.90
37408;DHT22;24866;50.248;8.252;2022-07-21T05:06:21;19.80;99.90
37408;DHT22;24866;50.248;8.252;2022-07-21T05:08:52;19.70;99.90
37408;DHT22;24866;50.248;8.252;2022-07-21T05:11:22;19.50;99.90
37408;DHT22;24866;50.248;8.252;2022-07-21T05:13:52;19.60;99.90
37408;DHT22;24866;50.248;8.252;2022-07-21T05:16:22;19.70;99.90
37408;DHT22;24866;50.248;8.252;2022-07-21T05:18:52;19.90;99.90
37408;DHT22;24866;50.248;8.252;2022-07-21T05:21:22;19.90;99.90
37408;DHT22;24866;50.248;8.252;2022-07-21T05:23:55;20.10;99.90
37408;DHT22;24866;50.248;8.252;2022-07-21T05:26:25;19.80;99.90
37408;DHT22;24866;50.248;8.252;2022-07-21T05:28:55;19.90;99.90
37408;DHT22;24866;50.248;8.252;2022-07-21T05:31:25;20.00;99.90
37408;DHT22;24866;50.248;8.252;2022-07-21T05:33:55;20.10;99.90
37408;DHT22;24866;50.248;8.252;2022-07-21T05:36:25;20.00;99.90
37408;DHT22;24866;50.248;8.252;2022-07-21T05:38:57;19.90;99.90
37408;DHT22;24866;50.248;8.252;2022-07-21T05:41:27;20.00;99.90
37408;DHT22;24866;50.248;8.252;2022-07-21T05:43:58;20.30;99.90
37408;DHT22;24866;50.248;8.252;2022-07-21T05:46:30;20.10;99.90
37408;DHT22;24866;50.248;8.252;2022-07-21T05:49:00;19.90;99.90
37408;DHT22;24866;50.248;8.252;2022-07-21T05:51:30;19.60;99.90
37408;DHT22;24866;50.248;8.252;2022-07-21T05:54:01;19.50;99.90
37408;DHT22;24866;50.248;8.252;2022-07-21T05:56:31;19.90;99.90
37408;DHT22;24866;50.248;8.252;2022-07-21T05:59:01;19.70;99.90
37408;DHT22;24866;50.248;8.252;2022-07-21T06:01:31;19.60;99.90
37408;DHT22;24866;50.248;8.252;2022-07-21T06:04:00;19.70;99.90
37408;DHT22;24866;50.248;8.252;2022-07-21T06:06:31;19.70;99.90
37408;DHT22;24866;50.248;8.252;2022-07-21T06:09:03;19.60;99.90
37408;DHT22;24866;50.248;8.252;2022-07-21T06:11:33;19.60;99.90
37408;DHT22;24866;50.248;8.252;2022-07-21T06:14:03;19.60;99.90
37408;DHT22;24866;50.248;8.252;2022-07-21T06:16:33;19.40;99.90
37408;DHT22;24866;50.248;8.252;2022-07-21T06:19:03;19.70;99.90
37408;DHT22;24866;50.248;8.252;2022-07-21T06:21:35;19.60;99.90
37408;DHT22;24866;50.248;8.252;2022-07-21T06:24:07;19.40;99.90
37408;DHT22;24866;50.248;8.252;2022-07-21T06:26:37;19.40;99.90
37408;DHT22;24866;50.248;8.252;2022-07-21T06:29:08;19.70;99.90
37408;DHT22;24866;50.248;8.252;2022-07-21T06:31:38;19.70;99.90
37408;DHT22;24866;50.248;8.252;2022-07-21T06:34:08;19.70;99.90
37408;DHT22;24866;50.248;8.252;2022-07-21T06:36:38;19.90;99.90
37408;DHT22;24866;50.248;8.252;2022-07-21T06:39:10;19.90;99.90
37408;DHT22;24866;50.248;8.252;2022-07-21T06:41:41;19.90;99.90
37408;DHT22;24866;50.248;8.252;2022-07-21T06:44:11;20.00;99.90
37408;DHT22;24866;50.248;8.252;2022-07-21T06:46:41;20.30;99.90
37408;DHT22;24866;50.248;8.252;2022-07-21T06:49:11;20.50;99.90
37408;DHT22;24866;50.248;8.252;2022-07-21T06:51:40;20.10;99.90
37408;DHT22;24866;50.248;8.252;2022-07-21T06:54:12;19.80;99.90
37408;DHT22;24866;50.248;8.252;2022-07-21T06:56:42;19.90;99.90
37408;DHT22;24866;50.248;8.252;2022-07-21T06:59:12;19.90;99.90
37408;DHT22;24866;50.248;8.252;2022-07-21T07:01:42;20.00;99.90
37408;DHT22;24866;50.248;8.252;2022-07-21T07:04:12;20.20;99.90
37408;DHT22;24866;50.248;8.252;2022-07-21T07:06:42;20.10;99.90
37408;DHT22;24866;50.248;8.252;2022-07-21T07:09:14;20.20;99.90
37408;DHT22;24866;50.248;8.252;2022-07-21T07:11:44;20.40;99.90
37408;DHT22;24866;50.248;8.252;2022-07-21T07:14:15;20.00;99.90
37408;DHT22;24866;50.248;8.252;2022-07-21T07:16:45;19.80;99.90
37408;DHT22;24866;50.248;8.252;2022-07-21T07:19:15;19.80;99.90
37408;DHT22;24866;50.248;8.252;2022-07-21T07:21:45;19.90;99.90
37408;DHT22;24866;50.248;8.252;2022-07-21T07:24:16;19.70;99.90
37408;DHT22;24866;50.248;8.252;2022-07-21T07:26:47;19.90;99.90
37408;DHT22;24866;50.248;8.252;2022-07-21T07:29:17;19.80;99.90
37408;DHT22;24866;50.248;8.252;2022-07-21T07:31:47;19.90;99.90
37408;DHT22;24866;50.248;8.252;2022-07-21T07:34:17;20.00;99.90
37408;DHT22;24866;50.248;8.252;2022-07-21T07:36:48;20.00;99.90
37408;DHT22;24866;50.248;8.252;2022-07-21T07:39:19;20.00;99.90
37408;DHT22;24866;50.248;8.252;2022-07-21T07:41:49;20.10;99.90
37408;DHT22;24866;50.248;8.252;2022-07-21T07:44:19;20.30;99.90
37408;DHT22;24866;50.248;8.252;2022-07-21T07:46:49;20.20;99.90
37408;DHT22;24866;50.248;8.252;2022-07-21T07:49:20;20.20;99.90
37408;DHT22;24866;50.248;8.252;2022-07-21T07:51:50;20.20;99.90
37408;DHT22;24866;50.248;8.252;2022-07-21T07:54:21;20.20;99.90
37408;DHT22;24866;50.248;8.252;2022-07-21T07:56:53;20.20;99.90
37408;DHT22;24866;50.248;8.252;2022-07-21T07:59:27;20.30;99.90
37408;DHT22;24866;50.248;8.252;2022-07-21T08:01:57;20.30;99.90
37408;DHT22;24866;50.248;8.252;2022-07-21T08:04:27;20.30;99.90
37408;DHT22;24866;50.248;8.252;2022-07-21T08:06:57;20.30;99.90
37408;DHT22;24866;50.248;8.252;2022-07-21T08:09:32;20.60;99.90
37408;DHT22;24866;50.248;8.252;2022-07-21T08:12:02;20.50;99.90
37408;DHT22;24866;50.248;8.252;2022-07-21T08:14:32;20.30;99.90
37408;DHT22;24866;50.248;8.252;2022-07-21T08:17:02;20.10;99.90
37408;DHT22;24866;50.248;8.252;2022-07-21T08:19:32;20.50;99.90
37408;DHT22;24866;50.248;8.252;2022-07-21T08:22:02;20.90;99.90
37408;DHT22;24866;50.248;8.252;2022-07-21T08:24:34;20.80;99.90
37408;DHT22;24866;50.248;8.252;2022-07-21T08:27:04;20.70;99.90
37408;DHT22;24866;50.248;8.252;2022-07-21T08:29:34;20.90;99.90
37408;DHT22;24866;50.248;8.252;2022-07-21T08:32:04;20.80;99.90
37408;DHT22;24866;50.248;8.252;2022-07-21T08:34:34;21.10;99.90
37408;DHT22;24866;50.248;8.252;2022-07-21T08:37:05;21.10;99.90
37408;DHT22;24866;50.248;8.252;2022-07-21T08:39:36;21.10;99.90
37408;DHT22;24866;50.248;8.252;2022-07-21T08:42:06;21.60;99.90
37408;DHT22;24866;50.248;8.252;2022-07-21T08:44:37;21.80;99.90
37408;DHT22;24866;50.248;8.252;2022-07-21T08:47:07;21.70;99.90
37408;DHT22;24866;50.248;8.252;2022-07-21T08:49:37;21.40;99.90
37408;DHT22;24866;50.248;8.252;2022-07-21T08:52:07;21.50;99.90
37408;DHT22;24866;50.248;8.252;2022-07-21T08:54:39;21.30;99.90
37408;DHT22;24866;50.248;8.252;2022-07-21T08:59:43;21.70;99.90
37408;DHT22;24866;50.248;8.252;2022-07-21T09:02:26;21.70;99.90
37408;DHT22;24866;50.248;8.252;2022-07-21T09:04:57;21.40;99.90
37408;DHT22;24866;50.248;8.252;2022-07-21T09:07:28;21.30;99.90
37408;DHT22;24866;50.248;8.252;2022-07-21T09:10:01;21.50;99.90
37408;DHT22;24866;50.248;8.252;2022-07-21T09:12:31;21.50;99.90
37408;DHT22;24866;50.248;8.252;2022-07-21T09:15:18;21.40;99.90
37408;DHT22;24866;50.248;8.252;2022-07-21T09:18:04;21.40;99.90
37408;DHT22;24866;50.248;8.252;2022-07-21T09:20:36;21.30;99.90
37408;DHT22;24866;50.248;8.252;2022-07-21T09:23:08;21.30;99.90
37408;DHT22;24866;50.248;8.252;2022-07-21T09:25:43;21.60;99.90
37408;DHT22;24866;50.248;8.252;2022-07-21T09:28:16;21.70;99.90
37408;DHT22;24866;50.248;8.252;2022-07-21T09:30:52;21.50;99.90
37408;DHT22;24866;50.248;8.252;2022-07-21T09:33:24;21.60;99.90
37408;DHT22;24866;50.248;8.252;2022-07-21T09:35:55;21.70;99.90
37408;DHT22;24866;50.248;8.252;2022-07-21T09:38:27;21.50;99.90
37408;DHT22;24866;50.248;8.252;2022-07-21T09:41:08;21.60;99.90
37408;DHT22;24866;50.248;8.252;2022-07-21T09:43:42;21.40;99.90
37408;DHT22;24866;50.248;8.252;2022-07-21T09:46:15;21.50;99.90
37408;DHT22;24866;50.248;8.252;2022-07-21T09:48:47;21.70;99.90
37408;DHT22;24866;50.248;8.252;2022-07-21T09:51:29;22.00;99.90
37408;DHT22;24866;50.248;8.252;2022-07-21T09:54:00;22.50;99.90
37408;DHT22;24866;50.248;8.252;2022-07-21T09:56:33;22.50;99.90
37408;DHT22;24866;50.248;8.252;2022-07-21T09:59:05;22.60;99.90
37408;DHT22;24866;50.248;8.252;2022-07-21T10:01:36;22.60;99.90
37408;DHT22;24866;50.248;8.252;2022-07-21T10:04:10;22.90;99.90
37408;DHT22;24866;50.248;8.252;2022-07-21T10:06:42;23.00;99.90
37408;DHT22;24866;50.248;8.252;2022-07-21T10:09:12;22.70;99.90
37408;DHT22;24866;50.248;8.252;2022-07-21T10:11:43;23.20;99.90
37408;DHT22;24866;50.248;8.252;2022-07-21T10:14:13;23.40;99.90
37408;DHT22;24866;50.248;8.252;2022-07-21T10:16:43;23.50;99.90
37408;DHT22;24866;50.248;8.252;2022-07-21T10:19:19;23.40;99.90
37408;DHT22;24866;50.248;8.252;2022-07-21T10:22:01;23.10;99.90
37408;DHT22;24866;50.248;8.252;2022-07-21T10:24:34;22.80;99.90
37408;DHT22;24866;50.248;8.252;2022-07-21T10:27:08;22.80;99.90
37408;DHT22;24866;50.248;8.252;2022-07-21T10:29:57;23.00;99.90
37408;DHT22;24866;50.248;8.252;2022-07-21T10:32:31;22.90;99.90
37408;DHT22;24866;50.248;8.252;2022-07-21T10:37:55;22.50;99.90
37408;DHT22;24866;50.248;8.252;2022-07-21T10:40:36;22.60;99.90
37408;DHT22;24866;50.248;8.252;2022-07-21T10:43:42;23.00;99.90
37408;DHT22;24866;50.248;8.252;2022-07-21T10:46:32;23.30;99.90
37408;DHT22;24866;50.248;8.252;2022-07-21T10:49:08;23.80;99.90
37408;DHT22;24866;50.248;8.252;2022-07-21T10:51:38;23.70;99.90
37408;DHT22;24866;50.248;8.252;2022-07-21T10:54:23;23.80;99.90
37408;DHT22;24866;50.248;8.252;2022-07-21T10:57:24;24.10;99.90
37408;DHT22;24866;50.248;8.252;2022-07-21T11:00:22;24.80;99.90
37408;DHT22;24866;50.248;8.252;2022-07-21T11:02:55;25.20;99.90
37408;DHT22;24866;50.248;8.252;2022-07-21T11:05:27;24.60;1.00
37408;DHT22;24866;50.248;8.252;2022-07-21T11:08:17;24.70;44.40
37408;DHT22;24866;50.248;8.252;2022-07-21T11:10:50;25.50;1.00
37408;DHT22;24866;50.248;8.252;2022-07-21T11:13:21;25.00;99.90
37408;DHT22;24866;50.248;8.252;2022-07-21T11:15:58;24.70;1.00
37408;DHT22;24866;50.248;8.252;2022-07-21T11:18:30;25.00;99.90
37408;DHT22;24866;50.248;8.252;2022-07-21T11:21:12;25.50;1.00
37408;DHT22;24866;50.248;8.252;2022-07-21T11:23:44;25.20;99.90
37408;DHT22;24866;50.248;8.252;2022-07-21T11:26:16;25.50;1.00
37408;DHT22;24866;50.248;8.252;2022-07-21T11:28:46;24.50;1.00
37408;DHT22;24866;50.248;8.252;2022-07-21T11:31:20;24.10;99.90
37408;DHT22;24866;50.248;8.252;2022-07-21T11:33:50;24.00;99.90
37408;DHT22;24866;50.248;8.252;2022-07-21T11:36:25;24.30;1.00
37408;DHT22;24866;50.248;8.252;2022-07-21T11:39:01;24.60;99.90
37408;DHT22;24866;50.248;8.252;2022-07-21T11:41:32;24.80;99.90
37408;DHT22;24866;50.248;8.252;2022-07-21T11:44:03;25.10;99.90
37408;DHT22;24866;50.248;8.252;2022-07-21T11:46:49;25.10;1.00
37408;DHT22;24866;50.248;8.252;2022-07-21T11:49:19;25.10;27.80
37408;DHT22;24866;50.248;8.252;2022-07-21T11:51:51;26.00;1.00
37408;DHT22;24866;50.248;8.252;2022-07-21T11:54:26;24.90;67.60
37408;DHT22;24866;50.248;8.252;2022-07-21T11:56:57;24.50;21.70
37408;DHT22;24866;50.248;8.252;2022-07-21T11:59:30;24.60;1.00
37408;DHT22;24866;50.248;8.252;2022-07-21T12:02:05;24.80;1.00
37408;DHT22;24866;50.248;8.252;2022-07-21T12:04:42;25.10;1.00
37408;DHT22;24866;50.248;8.252;2022-07-21T12:07:17;25.10;1.00
37408;DHT22;24866;50.248;8.252;2022-07-21T12:09:50;24.80;1.00
37408;DHT22;24866;50.248;8.252;2022-07-21T12:12:28;25.10;1.00
37408;DHT22;24866;50.248;8.252;2022-07-21T12:15:11;25.80;1.00
37408;DHT22;24866;50.248;8.252;2022-07-21T12:17:44;26.10;1.00
37408;DHT22;24866;50.248;8.252;2022-07-21T12:20:25;25.90;99.90
37408;DHT22;24866;50.248;8.252;2022-07-21T12:22:56;25.30;99.90
37408;DHT22;24866;50.248;8.252;2022-07-21T12:25:31;25.20;99.90
37408;DHT22;24866;50.248;8.252;2022-07-21T12:28:03;25.10;99.90
37408;DHT22;24866;50.248;8.252;2022-07-21T12:30:36;24.80;99.90
37408;DHT22;24866;50.248;8.252;2022-07-21T12:33:11;24.70;99.90
37408;DHT22;24866;50.248;8.252;2022-07-21T12:35:44;24.70;99.90
37408;DHT22;24866;50.248;8.252;2022-07-21T12:38:17;24.70;99.90
37408;DHT22;24866;50.248;8.252;2022-07-21T12:40:49;24.60;99.90
37408;DHT22;24866;50.248;8.252;2022-07-21T12:43:26;24.70;99.90
37408;DHT22;24866;50.248;8.252;2022-07-21T12:45:57;25.00;99.90
37408;DHT22;24866;50.248;8.252;2022-07-21T12:48:31;25.80;20.50
37408;DHT22;24866;50.248;8.252;2022-07-21T12:51:10;26.10;99.90
37408;DHT22;24866;50.248;8.252;2022-07-21T12:53:44;26.50;1.00
37408;DHT22;24866;50.248;8.252;2022-07-21T12:56:17;26.00;1.00
37408;DHT22;24866;50.248;8.252;2022-07-21T12:58:48;25.70;1.00
37408;DHT22;24866;50.248;8.252;2022-07-21T13:01:19;25.30;99.90
37408;DHT22;24866;50.248;8.252;2022-07-21T13:03:51;25.30;99.90
37408;DHT22;24866;50.248;8.252;2022-07-21T13:06:21;25.80;99.90
37408;DHT22;24866;50.248;8.252;2022-07-21T13:08:52;25.90;99.90
37408;DHT22;24866;50.248;8.252;2022-07-21T13:11:23;26.00;1.00
37408;DHT22;24866;50.248;8.252;2022-07-21T13:13:53;26.20;1.00
37408;DHT22;24866;50.248;8.252;2022-07-21T13:16:27;26.10;1.00
37408;DHT22;24866;50.248;8.252;2022-07-21T13:18:59;25.60;1.00
37408;DHT22;24866;50.248;8.252;2022-07-21T13:21:30;25.50;1.00
37408;DHT22;24866;50.248;8.252;2022-07-21T13:24:01;25.50;1.00
37408;DHT22;24866;50.248;8.252;2022-07-21T13:26:31;25.70;1.00
37408;DHT22;24866;50.248;8.252;2022-07-21T13:29:02;26.30;1.00
37408;DHT22;24866;50.248;8.252;2022-07-21T13:31:34;26.70;1.00
37408;DHT22;24866;50.248;8.252;2022-07-21T13:34:07;26.80;1.00
37408;DHT22;24866;50.248;8.252;2022-07-21T13:36:37;26.90;1.00
37408;DHT22;24866;50.248;8.252;2022-07-21T13:39:08;26.20;1.00
37408;DHT22;24866;50.248;8.252;2022-07-21T13:41:40;26.00;1.00
37408;DHT22;24866;50.248;8.252;2022-07-21T13:44:10;26.10;1.00
37408;DHT22;24866;50.248;8.252;2022-07-21T13:46:41;25.90;1.00
37408;DHT22;24866;50.248;8.252;2022-07-21T13:49:13;25.90;1.00
37408;DHT22;24866;50.248;8.252;2022-07-21T13:51:43;25.90;1.00
37408;DHT22;24866;50.248;8.252;2022-07-21T13:54:13;25.90;1.00
37408;DHT22;24866;50.248;8.252;2022-07-21T13:56:44;25.90;1.00
37408;DHT22;24866;50.248;8.252;2022-07-21T13:59:15;25.60;1.00
37408;DHT22;24866;50.248;8.252;2022-07-21T14:01:46;25.70;1.00
37408;DHT22;24866;50.248;8.252;2022-07-21T14:04:19;25.80;1.00
37408;DHT22;24866;50.248;8.252;2022-07-21T14:06:49;25.60;1.00
37408;DHT22;24866;50.248;8.252;2022-07-21T14:09:21;25.50;1.00
37408;DHT22;24866;50.248;8.252;2022-07-21T14:11:51;25.50;1.00
37408;DHT22;24866;50.248;8.252;2022-07-21T14:14:21;25.50;1.00
37408;DHT22;24866;50.248;8.252;2022-07-21T14:16:54;25.70;1.00
37408;DHT22;24866;50.248;8.252;2022-07-21T14:19:27;25.50;1.00
37408;DHT22;24866;50.248;8.252;2022-07-21T14:21:57;25.60;99.90
37408;DHT22;24866;50.248;8.252;2022-07-21T14:24:28;25.40;1.00
37408;DHT22;24866;50.248;8.252;2022-07-21T14:27:16;25.60;1.00
37408;DHT22;24866;50.248;8.252;2022-07-21T14:29:46;25.60;1.00
37408;DHT22;24866;50.248;8.252;2022-07-21T14:32:16;25.50;20.10
37408;DHT22;24866;50.248;8.252;2022-07-21T14:34:52;25.60;1.00
37408;DHT22;24866;50.248;8.252;2022-07-21T14:37:23;25.60;1.00
37408;DHT22;24866;50.248;8.252;2022-07-21T14:39:53;25.90;1.00
37408;DHT22;24866;50.248;8.252;2022-07-21T14:42:32;25.70;1.00
37408;DHT22;24866;50.248;8.252;2022-07-21T14:45:03;25.70;1.00
37408;DHT22;24866;50.248;8.252;2022-07-21T14:47:33;25.60;1.00
37408;DHT22;24866;50.248;8.252;2022-07-21T14:50:05;25.60;1.00
37408;DHT22;24866;50.248;8.252;2022-07-21T14:52:36;25.60;1.00
37408;DHT22;24866;50.248;8.252;2022-07-21T14:55:07;25.40;1.00
37408;DHT22;24866;50.248;8.252;2022-07-21T14:57:37;25.40;1.00
37408;DHT22;24866;50.248;8.252;2022-07-21T15:00:09;25.40;1.00
37408;DHT22;24866;50.248;8.252;2022-07-21T15:02:39;25.40;1.00
37408;DHT22;24866;50.248;8.252;2022-07-21T15:05:11;25.40;1.00
37408;DHT22;24866;50.248;8.252;2022-07-21T15:07:41;25.30;1.00
37408;DHT22;24866;50.248;8.252;2022-07-21T15:10:11;25.40;1.00
37408;DHT22;24866;50.248;8.252;2022-07-21T15:12:41;25.20;1.00
37408;DHT22;24866;50.248;8.252;2022-07-21T15:15:12;25.10;1.00
37408;DHT22;24866;50.248;8.252;2022-07-21T15:17:42;25.00;1.00
37408;DHT22;24866;50.248;8.252;2022-07-21T15:20:13;25.20;26.20
37408;DHT22;24866;50.248;8.252;2022-07-21T15:22:43;25.10;1.00
37408;DHT22;24866;50.248;8.252;2022-07-21T15:25:13;25.10;1.00
37408;DHT22;24866;50.248;8.252;2022-07-21T15:27:43;25.00;1.00
37408;DHT22;24866;50.248;8.252;2022-07-21T15:30:14;25.20;7.10
37408;DHT22;24866;50.248;8.252;2022-07-21T15:32:45;25.10;1.00
37408;DHT22;24866;50.248;8.252;2022-07-21T15:35:16;25.00;99.90
37408;DHT22;24866;50.248;8.252;2022-07-21T15:37:47;25.10;99.90
37408;DHT22;24866;50.248;8.252;2022-07-21T15:40:17;25.10;99.90
37408;DHT22;24866;50.248;8.252;2022-07-21T15:42:47;25.10;99.90
37408;DHT22;24866;50.248;8.252;2022-07-21T15:45:17;25.00;99.90
37408;DHT22;24866;50.248;8.252;2022-07-21T15:47:47;25.10;99.90
37408;DHT22;24866;50.248;8.252;2022-07-21T15:50:19;25.00;99.90
37408;DHT22;24866;50.248;8.252;2022-07-21T15:52:49;24.90;99.90
37408;DHT22;24866;50.248;8.252;2022-07-21T15:55:19;24.90;99.90
37408;DHT22;24866;50.248;8.252;2022-07-21T15:57:49;24.80;1.00
37408;DHT22;24866;50.248;8.252;2022-07-21T16:00:20;24.80;1.00
37408;DHT22;24866;50.248;8.252;2022-07-21T16:02:50;24.80;1.00
37408;DHT22;24866;50.248;8.252;2022-07-21T16:05:24;24.80;1.00
37408;DHT22;24866;50.248;8.252;2022-07-21T16:07:55;24.80;1.00
37408;DHT22;24866;50.248;8.252;2022-07-21T16:10:26;24.80;1.00
37408;DHT22;24866;50.248;8.252;2022-07-21T16:12:56;24.70;1.00